sensor_id;sensor_type;location;lat;lon;timestamp;P1;durP1;ratioP1;P2;durP2;ratioP2
68866;SDS011;56451;44.804;20.476;2022-12-18T00:01:53;36.78;;;13.57;;
68866;SDS011;56451;44.804;20.476;2022-12-18T00:04:23;35.33;;;14.50;;
68866;SDS011;56451;44.804;20.476;2022-12-18T00:06:49;32.20;;;14.40;;
68866;SDS011;56451;44.804;20.476;2022-12-18T00:09:16;31.80;;;14.40;;
68866;SDS011;56451;44.804;20.476;2022-12-18T00:11:42;29.23;;;11.57;;
68866;SDS011;56451;44.804;20.476;2022-12-18T00:14:08;36.07;;;13.37;;
68866;SDS011;56451;44.804;20.476;2022-12-18T00:16:36;34.65;;;14.85;;
68866;SDS011;56451;44.804;20.476;2022-12-18T00:19:02;30.13;;;13.60;;
68866;SDS011;56451;44.804;20.476;2022-12-18T00:21:30;34.65;;;14.25;;
68866;SDS011;56451;44.804;20.476;2022-12-18T00:23:57;36.72;;;16.30;;
68866;SDS011;56451;44.804;20.476;2022-12-18T00:26:31;33.47;;;15.10;;
68866;SDS011;56451;44.804;20.476;2022-12-18T00:29:01;35.28;;;14.10;;
68866;SDS011;56451;44.804;20.476;2022-12-18T00:31:29;32.80;;;14.95;;
68866;SDS011;56451;44.804;20.476;2022-12-18T00:33:56;35.20;;;14.70;;
68866;SDS011;56451;44.804;20.476;2022-12-18T00:36:23;37.60;;;15.02;;
68866;SDS011;56451;44.804;20.476;2022-12-18T00:38:54;36.50;;;13.30;;
68866;SDS011;56451;44.804;20.476;2022-12-18T00:41:22;40.35;;;14.73;;
68866;SDS011;56451;44.804;20.476;2022-12-18T00:44:07;36.88;;;14.05;;
68866;SDS011;56451;44.804;20.476;2022-12-18T00:46:35;38.10;;;16.10;;
68866;SDS011;56451;44.804;20.476;2022-12-18T00:49:01;37.17;;;13.97;;
68866;SDS011;56451;44.804;20.476;2022-12-18T00:51:31;33.47;;;14.35;;
68866;SDS011;56451;44.804;20.476;2022-12-18T00:54:02;38.15;;;15.07;;
68866;SDS011;56451;44.804;20.476;2022-12-18T00:56:28;36.05;;;15.70;;
68866;SDS011;56451;44.804;20.476;2022-12-18T00:58:54;32.33;;;13.93;;
68866;SDS011;56451;44.804;20.476;2022-12-18T01:01:19;31.00;;;13.90;;
68866;SDS011;56451;44.804;20.476;2022-12-18T01:03:46;32.63;;;13.50;;
68866;SDS011;56451;44.804;20.476;2022-12-18T01:06:25;34.63;;;14.80;;
68866;SDS011;56451;44.804;20.476;2022-12-18T01:08:51;34.47;;;13.93;;
68866;SDS011;56451;44.804;20.476;2022-12-18T01:11:18;32.33;;;14.40;;
68866;SDS011;56451;44.804;20.476;2022-12-18T01:13:45;32.83;;;13.88;;
68866;SDS011;56451;44.804;20.476;2022-12-18T01:16:11;34.42;;;13.48;;
68866;SDS011;56451;44.804;20.476;2022-12-18T01:18:38;30.55;;;12.30;;
68866;SDS011;56451;44.804;20.476;2022-12-18T01:21:08;29.13;;;12.07;;
68866;SDS011;56451;44.804;20.476;2022-12-18T01:23:36;34.42;;;12.95;;
68866;SDS011;56451;44.804;20.476;2022-12-18T01:26:07;35.42;;;14.90;;
68866;SDS011;56451;44.804;20.476;2022-12-18T01:28:35;33.33;;;12.98;;
68866;SDS011;56451;44.804;20.476;2022-12-18T01:34:01;32.13;;;13.63;;
68866;SDS011;56451;44.804;20.476;2022-12-18T01:36:33;31.55;;;13.48;;
68866;SDS011;56451;44.804;20.476;2022-12-18T01:39:00;34.55;;;14.38;;
68866;SDS011;56451;44.804;20.476;2022-12-18T01:41:29;31.85;;;13.82;;
68866;SDS011;56451;44.804;20.476;2022-12-18T01:47:34;32.00;;;13.37;;
68866;SDS011;56451;44.804;20.476;2022-12-18T01:52:40;29.52;;;12.88;;
68866;SDS011;56451;44.804;20.476;2022-12-18T01:55:08;34.95;;;13.52;;
68866;SDS011;56451;44.804;20.476;2022-12-18T01:57:35;32.00;;;12.50;;
68866;SDS011;56451;44.804;20.476;2022-12-18T02:00:05;29.23;;;12.97;;
68866;SDS011;56451;44.804;20.476;2022-12-18T02:02:41;29.63;;;12.32;;
68866;SDS011;56451;44.804;20.476;2022-12-18T02:05:09;33.30;;;14.48;;
68866;SDS011;56451;44.804;20.476;2022-12-18T02:10:12;36.58;;;12.27;;
68866;SDS011;56451;44.804;20.476;2022-12-18T02:12:43;35.53;;;13.23;;
68866;SDS011;56451;44.804;20.476;2022-12-18T02:15:48;31.33;;;11.95;;
68866;SDS011;56451;44.804;20.476;2022-12-18T02:18:12;29.67;;;12.35;;
68866;SDS011;56451;44.804;20.476;2022-12-18T02:20:49;31.23;;;13.68;;
68866;SDS011;56451;44.804;20.476;2022-12-18T02:26:15;33.67;;;13.57;;
68866;SDS011;56451;44.804;20.476;2022-12-18T02:28:53;35.08;;;14.50;;
68866;SDS011;56451;44.804;20.476;2022-12-18T02:31:28;33.75;;;13.38;;
68866;SDS011;56451;44.804;20.476;2022-12-18T02:34:00;31.52;;;13.10;;
68866;SDS011;56451;44.804;20.476;2022-12-18T02:36:33;31.13;;;13.68;;
68866;SDS011;56451;44.804;20.476;2022-12-18T02:39:02;32.60;;;13.50;;
68866;SDS011;56451;44.804;20.476;2022-12-18T02:41:31;35.90;;;14.20;;
68866;SDS011;56451;44.804;20.476;2022-12-18T02:43:58;32.90;;;15.20;;
68866;SDS011;56451;44.804;20.476;2022-12-18T02:46:33;35.35;;;13.60;;
68866;SDS011;56451;44.804;20.476;2022-12-18T02:56:49;38.33;;;16.05;;
68866;SDS011;56451;44.804;20.476;2022-12-18T02:59:26;35.92;;;15.35;;
68866;SDS011;56451;44.804;20.476;2022-12-18T03:02:06;38.27;;;15.23;;
68866;SDS011;56451;44.804;20.476;2022-12-18T03:04:54;37.58;;;15.23;;
68866;SDS011;56451;44.804;20.476;2022-12-18T03:07:32;39.40;;;15.40;;
68866;SDS011;56451;44.804;20.476;2022-12-18T03:10:06;34.75;;;13.93;;
68866;SDS011;56451;44.804;20.476;2022-12-18T03:12:37;35.42;;;14.50;;
68866;SDS011;56451;44.804;20.476;2022-12-18T03:18:53;33.75;;;14.27;;
68866;SDS011;56451;44.804;20.476;2022-12-18T03:20:59;37.50;;;14.15;;
68866;SDS011;56451;44.804;20.476;2022-12-18T03:23:40;37.42;;;14.35;;
68866;SDS011;56451;44.804;20.476;2022-12-18T03:26:15;38.90;;;14.60;;
68866;SDS011;56451;44.804;20.476;2022-12-18T03:28:47;37.93;;;15.23;;
68866;SDS011;56451;44.804;20.476;2022-12-18T03:31:19;36.38;;;14.95;;
68866;SDS011;56451;44.804;20.476;2022-12-18T03:34:09;27.45;;;11.52;;
68866;SDS011;56451;44.804;20.476;2022-12-18T03:36:43;40.55;;;16.17;;
68866;SDS011;56451;44.804;20.476;2022-12-18T03:39:09;33.38;;;13.27;;
68866;SDS011;56451;44.804;20.476;2022-12-18T03:53:09;31.05;;;13.25;;
68866;SDS011;56451;44.804;20.476;2022-12-18T03:55:54;33.97;;;14.10;;
68866;SDS011;56451;44.804;20.476;2022-12-18T03:58:24;31.58;;;13.13;;
68866;SDS011;56451;44.804;20.476;2022-12-18T04:01:00;34.03;;;14.45;;
68866;SDS011;56451;44.804;20.476;2022-12-18T04:03:29;33.88;;;13.35;;
68866;SDS011;56451;44.804;20.476;2022-12-18T04:05:57;30.55;;;12.23;;
68866;SDS011;56451;44.804;20.476;2022-12-18T04:08:27;27.73;;;11.17;;
68866;SDS011;56451;44.804;20.476;2022-12-18T04:11:04;37.83;;;15.52;;
68866;SDS011;56451;44.804;20.476;2022-12-18T04:13:36;32.47;;;14.13;;
68866;SDS011;56451;44.804;20.476;2022-12-18T04:16:06;38.60;;;16.15;;
68866;SDS011;56451;44.804;20.476;2022-12-18T04:18:32;34.22;;;15.38;;
68866;SDS011;56451;44.804;20.476;2022-12-18T04:21:00;37.07;;;14.93;;
68866;SDS011;56451;44.804;20.476;2022-12-18T04:23:27;34.78;;;13.75;;
68866;SDS011;56451;44.804;20.476;2022-12-18T04:25:56;35.65;;;14.88;;
68866;SDS011;56451;44.804;20.476;2022-12-18T04:28:36;35.45;;;13.85;;
68866;SDS011;56451;44.804;20.476;2022-12-18T04:31:02;37.75;;;16.02;;
68866;SDS011;56451;44.804;20.476;2022-12-18T04:33:28;38.33;;;15.20;;
68866;SDS011;56451;44.804;20.476;2022-12-18T04:35:55;36.38;;;14.13;;
68866;SDS011;56451;44.804;20.476;2022-12-18T04:38:21;35.83;;;14.68;;
68866;SDS011;56451;44.804;20.476;2022-12-18T04:40:53;38.80;;;15.20;;
68866;SDS011;56451;44.804;20.476;2022-12-18T04:43:24;35.83;;;14.15;;
68866;SDS011;56451;44.804;20.476;2022-12-18T04:45:50;32.50;;;14.10;;
68866;SDS011;56451;44.804;20.476;2022-12-18T04:48:16;34.33;;;14.25;;
68866;SDS011;56451;44.804;20.476;2022-12-18T04:50:42;33.20;;;13.87;;
68866;SDS011;56451;44.804;20.476;2022-12-18T04:53:08;41.00;;;16.35;;
68866;SDS011;56451;44.804;20.476;2022-12-18T04:55:34;34.20;;;15.27;;
68866;SDS011;56451;44.804;20.476;2022-12-18T04:57:59;38.83;;;16.13;;
68866;SDS011;56451;44.804;20.476;2022-12-18T05:00:25;38.15;;;15.60;;
68866;SDS011;56451;44.804;20.476;2022-12-18T05:02:51;35.58;;;16.10;;
68866;SDS011;56451;44.804;20.476;2022-12-18T05:05:17;31.93;;;14.90;;
68866;SDS011;56451;44.804;20.476;2022-12-18T05:07:43;40.55;;;15.07;;
68866;SDS011;56451;44.804;20.476;2022-12-18T05:10:09;34.10;;;15.40;;
68866;SDS011;56451;44.804;20.476;2022-12-18T05:12:35;37.88;;;14.73;;
68866;SDS011;56451;44.804;20.476;2022-12-18T05:15:21;29.87;;;13.33;;
68866;SDS011;56451;44.804;20.476;2022-12-18T05:17:47;33.63;;;13.10;;
68866;SDS011;56451;44.804;20.476;2022-12-18T05:20:13;35.92;;;15.80;;
68866;SDS011;56451;44.804;20.476;2022-12-18T05:22:39;44.73;;;13.67;;
68866;SDS011;56451;44.804;20.476;2022-12-18T05:25:05;37.42;;;15.32;;
68866;SDS011;56451;44.804;20.476;2022-12-18T05:27:31;38.08;;;15.70;;
68866;SDS011;56451;44.804;20.476;2022-12-18T05:29:57;37.83;;;15.47;;
68866;SDS011;56451;44.804;20.476;2022-12-18T05:32:22;35.92;;;14.95;;
68866;SDS011;56451;44.804;20.476;2022-12-18T05:34:48;35.90;;;14.93;;
68866;SDS011;56451;44.804;20.476;2022-12-18T05:37:14;34.60;;;14.53;;
68866;SDS011;56451;44.804;20.476;2022-12-18T05:39:40;38.50;;;16.52;;
68866;SDS011;56451;44.804;20.476;2022-12-18T05:42:07;39.05;;;15.93;;
68866;SDS011;56451;44.804;20.476;2022-12-18T05:44:33;37.90;;;15.33;;
68866;SDS011;56451;44.804;20.476;2022-12-18T05:46:59;28.42;;;11.05;;
68866;SDS011;56451;44.804;20.476;2022-12-18T05:49:25;37.25;;;14.52;;
68866;SDS011;56451;44.804;20.476;2022-12-18T05:51:51;41.25;;;16.23;;
68866;SDS011;56451;44.804;20.476;2022-12-18T05:54:17;37.78;;;15.35;;
68866;SDS011;56451;44.804;20.476;2022-12-18T05:56:43;36.95;;;14.80;;
68866;SDS011;56451;44.804;20.476;2022-12-18T05:59:09;40.55;;;17.13;;
68866;SDS011;56451;44.804;20.476;2022-12-18T06:01:35;40.63;;;15.27;;
68866;SDS011;56451;44.804;20.476;2022-12-18T06:04:00;42.35;;;16.63;;
68866;SDS011;56451;44.804;20.476;2022-12-18T06:06:27;35.47;;;15.10;;
68866;SDS011;56451;44.804;20.476;2022-12-18T06:08:54;42.17;;;16.60;;
68866;SDS011;56451;44.804;20.476;2022-12-18T06:11:22;30.55;;;14.27;;
68866;SDS011;56451;44.804;20.476;2022-12-18T06:13:50;36.80;;;14.83;;
68866;SDS011;56451;44.804;20.476;2022-12-18T06:16:20;41.53;;;14.80;;
68866;SDS011;56451;44.804;20.476;2022-12-18T06:18:47;40.35;;;15.35;;
68866;SDS011;56451;44.804;20.476;2022-12-18T06:21:12;40.90;;;17.33;;
68866;SDS011;56451;44.804;20.476;2022-12-18T06:23:38;38.60;;;16.23;;
68866;SDS011;56451;44.804;20.476;2022-12-18T06:26:05;39.53;;;14.98;;
68866;SDS011;56451;44.804;20.476;2022-12-18T06:28:31;38.13;;;15.50;;
68866;SDS011;56451;44.804;20.476;2022-12-18T06:30:57;41.58;;;17.15;;
68866;SDS011;56451;44.804;20.476;2022-12-18T06:33:25;43.70;;;15.00;;
68866;SDS011;56451;44.804;20.476;2022-12-18T06:35:52;38.83;;;15.30;;
68866;SDS011;56451;44.804;20.476;2022-12-18T06:38:18;44.13;;;17.23;;
68866;SDS011;56451;44.804;20.476;2022-12-18T06:40:44;39.80;;;15.57;;
68866;SDS011;56451;44.804;20.476;2022-12-18T06:43:10;42.72;;;15.63;;
68866;SDS011;56451;44.804;20.476;2022-12-18T06:45:36;43.53;;;16.83;;
68866;SDS011;56451;44.804;20.476;2022-12-18T06:48:02;40.40;;;15.53;;
68866;SDS011;56451;44.804;20.476;2022-12-18T06:50:27;42.00;;;16.02;;
68866;SDS011;56451;44.804;20.476;2022-12-18T06:52:54;41.92;;;15.73;;
68866;SDS011;56451;44.804;20.476;2022-12-18T06:55:20;41.40;;;16.37;;
68866;SDS011;56451;44.804;20.476;2022-12-18T06:57:45;41.15;;;16.25;;
68866;SDS011;56451;44.804;20.476;2022-12-18T07:00:11;41.08;;;16.73;;
68866;SDS011;56451;44.804;20.476;2022-12-18T07:02:37;41.13;;;16.63;;
68866;SDS011;56451;44.804;20.476;2022-12-18T07:05:03;41.00;;;17.38;;
68866;SDS011;56451;44.804;20.476;2022-12-18T07:07:29;39.45;;;15.73;;
68866;SDS011;56451;44.804;20.476;2022-12-18T07:09:55;46.90;;;17.57;;
68866;SDS011;56451;44.804;20.476;2022-12-18T07:12:21;38.28;;;17.25;;
68866;SDS011;56451;44.804;20.476;2022-12-18T07:14:47;37.42;;;14.90;;
68866;SDS011;56451;44.804;20.476;2022-12-18T07:17:13;37.65;;;16.35;;
68866;SDS011;56451;44.804;20.476;2022-12-18T07:19:39;43.13;;;16.67;;
68866;SDS011;56451;44.804;20.476;2022-12-18T07:22:05;44.70;;;16.33;;
68866;SDS011;56451;44.804;20.476;2022-12-18T07:24:32;43.47;;;16.73;;
68866;SDS011;56451;44.804;20.476;2022-12-18T07:26:58;42.78;;;17.17;;
68866;SDS011;56451;44.804;20.476;2022-12-18T07:29:24;47.20;;;17.57;;
68866;SDS011;56451;44.804;20.476;2022-12-18T07:31:51;39.05;;;16.83;;
68866;SDS011;56451;44.804;20.476;2022-12-18T07:34:16;49.92;;;18.55;;
68866;SDS011;56451;44.804;20.476;2022-12-18T07:36:42;50.03;;;19.00;;
68866;SDS011;56451;44.804;20.476;2022-12-18T07:39:10;50.15;;;18.25;;
68866;SDS011;56451;44.804;20.476;2022-12-18T07:41:36;46.72;;;17.58;;
68866;SDS011;56451;44.804;20.476;2022-12-18T07:44:09;48.05;;;19.17;;
68866;SDS011;56451;44.804;20.476;2022-12-18T07:46:36;40.70;;;16.43;;
68866;SDS011;56451;44.804;20.476;2022-12-18T07:49:01;48.17;;;18.00;;
68866;SDS011;56451;44.804;20.476;2022-12-18T07:51:27;45.42;;;17.27;;
68866;SDS011;56451;44.804;20.476;2022-12-18T07:53:53;42.37;;;17.23;;
68866;SDS011;56451;44.804;20.476;2022-12-18T07:56:19;51.50;;;20.90;;
68866;SDS011;56451;44.804;20.476;2022-12-18T07:58:47;54.72;;;21.65;;
68866;SDS011;56451;44.804;20.476;2022-12-18T08:01:12;48.40;;;19.35;;
68866;SDS011;56451;44.804;20.476;2022-12-18T08:03:39;50.37;;;19.73;;
68866;SDS011;56451;44.804;20.476;2022-12-18T08:06:07;48.17;;;19.40;;
68866;SDS011;56451;44.804;20.476;2022-12-18T08:08:34;52.97;;;22.52;;
68866;SDS011;56451;44.804;20.476;2022-12-18T08:11:00;47.33;;;19.45;;
68866;SDS011;56451;44.804;20.476;2022-12-18T08:13:26;48.95;;;18.63;;
68866;SDS011;56451;44.804;20.476;2022-12-18T08:15:59;53.20;;;18.87;;
68866;SDS011;56451;44.804;20.476;2022-12-18T08:18:27;45.92;;;20.38;;
68866;SDS011;56451;44.804;20.476;2022-12-18T08:20:54;46.47;;;18.58;;
68866;SDS011;56451;44.804;20.476;2022-12-18T08:23:20;45.67;;;18.48;;
68866;SDS011;56451;44.804;20.476;2022-12-18T08:25:46;45.10;;;18.67;;
68866;SDS011;56451;44.804;20.476;2022-12-18T08:28:12;48.50;;;17.97;;
68866;SDS011;56451;44.804;20.476;2022-12-18T08:30:41;47.42;;;17.25;;
68866;SDS011;56451;44.804;20.476;2022-12-18T08:33:07;42.75;;;18.00;;
68866;SDS011;56451;44.804;20.476;2022-12-18T08:35:36;44.00;;;18.02;;
68866;SDS011;56451;44.804;20.476;2022-12-18T08:38:02;51.85;;;20.08;;
68866;SDS011;56451;44.804;20.476;2022-12-18T08:40:28;51.63;;;18.92;;
68866;SDS011;56451;44.804;20.476;2022-12-18T08:42:55;44.78;;;18.73;;
68866;SDS011;56451;44.804;20.476;2022-12-18T08:45:39;45.92;;;18.48;;
68866;SDS011;56451;44.804;20.476;2022-12-18T08:48:05;49.53;;;17.90;;
68866;SDS011;56451;44.804;20.476;2022-12-18T08:50:31;48.40;;;18.33;;
68866;SDS011;56451;44.804;20.476;2022-12-18T08:52:56;44.97;;;19.10;;
68866;SDS011;56451;44.804;20.476;2022-12-18T08:55:22;46.65;;;17.83;;
68866;SDS011;56451;44.804;20.476;2022-12-18T08:57:48;46.97;;;17.35;;
68866;SDS011;56451;44.804;20.476;2022-12-18T09:00:15;43.17;;;18.02;;
68866;SDS011;56451;44.804;20.476;2022-12-18T09:02:41;41.43;;;16.37;;
68866;SDS011;56451;44.804;20.476;2022-12-18T09:05:07;42.13;;;18.17;;
68866;SDS011;56451;44.804;20.476;2022-12-18T09:07:32;48.15;;;17.88;;
68866;SDS011;56451;44.804;20.476;2022-12-18T09:09:58;44.77;;;18.70;;
68866;SDS011;56451;44.804;20.476;2022-12-18T09:12:24;42.00;;;17.33;;
68866;SDS011;56451;44.804;20.476;2022-12-18T09:14:50;47.00;;;18.95;;
68866;SDS011;56451;44.804;20.476;2022-12-18T09:17:16;41.33;;;17.53;;
68866;SDS011;56451;44.804;20.476;2022-12-18T09:19:42;43.78;;;18.27;;
68866;SDS011;56451;44.804;20.476;2022-12-18T09:22:09;50.70;;;20.40;;
68866;SDS011;56451;44.804;20.476;2022-12-18T09:24:35;47.90;;;18.98;;
68866;SDS011;56451;44.804;20.476;2022-12-18T09:27:01;47.30;;;19.43;;
68866;SDS011;56451;44.804;20.476;2022-12-18T09:29:27;45.10;;;18.25;;
68866;SDS011;56451;44.804;20.476;2022-12-18T09:31:53;42.92;;;18.65;;
68866;SDS011;56451;44.804;20.476;2022-12-18T09:34:18;41.33;;;19.33;;
68866;SDS011;56451;44.804;20.476;2022-12-18T09:36:47;38.92;;;16.90;;
68866;SDS011;56451;44.804;20.476;2022-12-18T09:39:13;46.33;;;18.33;;
68866;SDS011;56451;44.804;20.476;2022-12-18T09:41:53;44.97;;;19.17;;
68866;SDS011;56451;44.804;20.476;2022-12-18T09:49:32;43.20;;;18.02;;
68866;SDS011;56451;44.804;20.476;2022-12-18T09:54:43;44.55;;;18.92;;
68866;SDS011;56451;44.804;20.476;2022-12-18T09:57:14;49.65;;;20.60;;
68866;SDS011;56451;44.804;20.476;2022-12-18T09:59:44;46.60;;;19.43;;
68866;SDS011;56451;44.804;20.476;2022-12-18T10:02:29;42.97;;;18.70;;
68866;SDS011;56451;44.804;20.476;2022-12-18T10:10:38;41.97;;;18.33;;
68866;SDS011;56451;44.804;20.476;2022-12-18T10:16:08;49.35;;;18.92;;
68866;SDS011;56451;44.804;20.476;2022-12-18T10:21:26;48.25;;;19.80;;
68866;SDS011;56451;44.804;20.476;2022-12-18T10:24:20;40.10;;;16.17;;
68866;SDS011;56451;44.804;20.476;2022-12-18T10:26:49;44.53;;;18.27;;
68866;SDS011;56451;44.804;20.476;2022-12-18T10:29:16;51.60;;;19.92;;
68866;SDS011;56451;44.804;20.476;2022-12-18T10:31:42;48.97;;;20.13;;
68866;SDS011;56451;44.804;20.476;2022-12-18T10:34:11;44.92;;;20.55;;
68866;SDS011;56451;44.804;20.476;2022-12-18T10:36:37;45.28;;;19.35;;
68866;SDS011;56451;44.804;20.476;2022-12-18T10:39:17;57.40;;;20.27;;
68866;SDS011;56451;44.804;20.476;2022-12-18T10:41:45;37.00;;;16.20;;
68866;SDS011;56451;44.804;20.476;2022-12-18T10:44:16;37.95;;;16.13;;
68866;SDS011;56451;44.804;20.476;2022-12-18T10:46:44;44.85;;;17.73;;
68866;SDS011;56451;44.804;20.476;2022-12-18T10:49:22;40.10;;;17.23;;
68866;SDS011;56451;44.804;20.476;2022-12-18T10:51:51;43.85;;;17.75;;
68866;SDS011;56451;44.804;20.476;2022-12-18T10:54:29;40.47;;;17.65;;
68866;SDS011;56451;44.804;20.476;2022-12-18T10:57:13;43.50;;;17.88;;
68866;SDS011;56451;44.804;20.476;2022-12-18T10:59:55;42.10;;;17.83;;
68866;SDS011;56451;44.804;20.476;2022-12-18T11:02:35;42.37;;;19.07;;
68866;SDS011;56451;44.804;20.476;2022-12-18T11:05:07;49.83;;;19.38;;
68866;SDS011;56451;44.804;20.476;2022-12-18T11:07:59;47.78;;;19.52;;
68866;SDS011;56451;44.804;20.476;2022-12-18T11:10:30;47.95;;;18.55;;
68866;SDS011;56451;44.804;20.476;2022-12-18T11:13:11;47.80;;;20.42;;
68866;SDS011;56451;44.804;20.476;2022-12-18T11:15:48;46.30;;;18.40;;
68866;SDS011;56451;44.804;20.476;2022-12-18T11:18:18;43.38;;;17.95;;
68866;SDS011;56451;44.804;20.476;2022-12-18T11:20:57;49.10;;;19.60;;
68866;SDS011;56451;44.804;20.476;2022-12-18T11:23:26;46.50;;;19.92;;
68866;SDS011;56451;44.804;20.476;2022-12-18T11:25:54;46.53;;;18.15;;
68866;SDS011;56451;44.804;20.476;2022-12-18T11:33:48;50.03;;;18.77;;
68866;SDS011;56451;44.804;20.476;2022-12-18T11:36:16;48.17;;;18.88;;
68866;SDS011;56451;44.804;20.476;2022-12-18T11:38:44;42.38;;;18.02;;
68866;SDS011;56451;44.804;20.476;2022-12-18T11:43:55;46.50;;;18.88;;
68866;SDS011;56451;44.804;20.476;2022-12-18T11:46:27;43.47;;;18.45;;
68866;SDS011;56451;44.804;20.476;2022-12-18T11:49:01;44.95;;;18.75;;
68866;SDS011;56451;44.804;20.476;2022-12-18T11:54:28;48.63;;;21.67;;
68866;SDS011;56451;44.804;20.476;2022-12-18T12:09:08;48.58;;;20.52;;
68866;SDS011;56451;44.804;20.476;2022-12-18T12:11:21;49.67;;;21.38;;
68866;SDS011;56451;44.804;20.476;2022-12-18T12:19:31;49.50;;;21.13;;
68866;SDS011;56451;44.804;20.476;2022-12-18T12:30:20;53.13;;;20.40;;
68866;SDS011;56451;44.804;20.476;2022-12-18T12:35:45;57.85;;;22.17;;
68866;SDS011;56451;44.804;20.476;2022-12-18T12:40:39;57.63;;;21.77;;
68866;SDS011;56451;44.804;20.476;2022-12-18T12:46:03;56.40;;;22.00;;
68866;SDS011;56451;44.804;20.476;2022-12-18T12:48:32;55.50;;;22.38;;
68866;SDS011;56451;44.804;20.476;2022-12-18T12:54:15;51.15;;;22.60;;
68866;SDS011;56451;44.804;20.476;2022-12-18T12:59:19;62.08;;;23.60;;
68866;SDS011;56451;44.804;20.476;2022-12-18T13:13:01;59.00;;;22.60;;
68866;SDS011;56451;44.804;20.476;2022-12-18T13:26:38;56.22;;;23.70;;
68866;SDS011;56451;44.804;20.476;2022-12-18T13:31:12;58.55;;;24.17;;
68866;SDS011;56451;44.804;20.476;2022-12-18T13:38:36;54.15;;;23.63;;
68866;SDS011;56451;44.804;20.476;2022-12-18T13:41:04;50.37;;;19.93;;
68866;SDS011;56451;44.804;20.476;2022-12-18T13:43:43;51.53;;;20.80;;
68866;SDS011;56451;44.804;20.476;2022-12-18T13:46:30;56.22;;;23.13;;
68866;SDS011;56451;44.804;20.476;2022-12-18T13:51:41;48.88;;;19.67;;
68866;SDS011;56451;44.804;20.476;2022-12-18T13:56:54;51.00;;;20.55;;
68866;SDS011;56451;44.804;20.476;2022-12-18T13:59:21;46.13;;;20.80;;
68866;SDS011;56451;44.804;20.476;2022-12-18T14:01:53;56.90;;;24.08;;
68866;SDS011;56451;44.804;20.476;2022-12-18T14:07:10;59.67;;;25.58;;
68866;SDS011;56451;44.804;20.476;2022-12-18T14:09:43;52.53;;;21.83;;
68866;SDS011;56451;44.804;20.476;2022-12-18T14:12:14;56.20;;;21.88;;
68866;SDS011;56451;44.804;20.476;2022-12-18T14:15:01;50.47;;;21.98;;
68866;SDS011;56451;44.804;20.476;2022-12-18T14:17:28;54.37;;;20.97;;
68866;SDS011;56451;44.804;20.476;2022-12-18T14:19:54;54.30;;;22.67;;
68866;SDS011;56451;44.804;20.476;2022-12-18T14:22:21;52.80;;;19.58;;
68866;SDS011;56451;44.804;20.476;2022-12-18T14:25:10;49.90;;;20.35;;
68866;SDS011;56451;44.804;20.476;2022-12-18T14:27:45;49.90;;;20.73;;
68866;SDS011;56451;44.804;20.476;2022-12-18T14:30:23;51.60;;;21.90;;
68866;SDS011;56451;44.804;20.476;2022-12-18T14:33:01;50.22;;;20.30;;
68866;SDS011;56451;44.804;20.476;2022-12-18T14:35:36;53.65;;;20.83;;
68866;SDS011;56451;44.804;20.476;2022-12-18T14:38:26;47.50;;;18.88;;
68866;SDS011;56451;44.804;20.476;2022-12-18T14:40:57;47.40;;;17.98;;
68866;SDS011;56451;44.804;20.476;2022-12-18T14:43:26;43.53;;;19.43;;
68866;SDS011;56451;44.804;20.476;2022-12-18T14:45:53;46.15;;;18.83;;
68866;SDS011;56451;44.804;20.476;2022-12-18T14:51:01;56.65;;;22.40;;
68866;SDS011;56451;44.804;20.476;2022-12-18T14:53:33;48.85;;;21.13;;
68866;SDS011;56451;44.804;20.476;2022-12-18T14:56:18;64.73;;;24.23;;
68866;SDS011;56451;44.804;20.476;2022-12-18T14:58:47;53.30;;;21.67;;
68866;SDS011;56451;44.804;20.476;2022-12-18T15:01:18;50.78;;;20.15;;
68866;SDS011;56451;44.804;20.476;2022-12-18T15:04:05;53.70;;;21.35;;
68866;SDS011;56451;44.804;20.476;2022-12-18T15:09:30;57.40;;;23.80;;
68866;SDS011;56451;44.804;20.476;2022-12-18T15:11:57;53.75;;;22.20;;
68866;SDS011;56451;44.804;20.476;2022-12-18T15:14:34;52.28;;;24.83;;
68866;SDS011;56451;44.804;20.476;2022-12-18T15:17:02;62.78;;;24.08;;
68866;SDS011;56451;44.804;20.476;2022-12-18T15:19:40;57.77;;;24.17;;
68866;SDS011;56451;44.804;20.476;2022-12-18T15:22:20;64.10;;;24.88;;
68866;SDS011;56451;44.804;20.476;2022-12-18T15:24:50;71.43;;;27.50;;
68866;SDS011;56451;44.804;20.476;2022-12-18T15:27:23;63.70;;;25.33;;
68866;SDS011;56451;44.804;20.476;2022-12-18T15:32:33;53.17;;;21.83;;
68866;SDS011;56451;44.804;20.476;2022-12-18T15:35:08;52.55;;;20.98;;
68866;SDS011;56451;44.804;20.476;2022-12-18T15:37:41;54.33;;;22.20;;
68866;SDS011;56451;44.804;20.476;2022-12-18T15:40:14;57.80;;;22.58;;
68866;SDS011;56451;44.804;20.476;2022-12-18T15:42:45;55.60;;;22.83;;
68866;SDS011;56451;44.804;20.476;2022-12-18T15:45:31;67.80;;;26.27;;
68866;SDS011;56451;44.804;20.476;2022-12-18T15:47:57;68.93;;;27.15;;
68866;SDS011;56451;44.804;20.476;2022-12-18T15:50:24;78.60;;;30.55;;
68866;SDS011;56451;44.804;20.476;2022-12-18T15:52:51;75.68;;;30.80;;
68866;SDS011;56451;44.804;20.476;2022-12-18T15:55:20;77.32;;;30.55;;
68866;SDS011;56451;44.804;20.476;2022-12-18T15:58:06;82.17;;;31.90;;
68866;SDS011;56451;44.804;20.476;2022-12-18T16:00:33;78.03;;;30.67;;
68866;SDS011;56451;44.804;20.476;2022-12-18T16:03:00;78.88;;;29.83;;
68866;SDS011;56451;44.804;20.476;2022-12-18T16:05:27;84.50;;;31.90;;
68866;SDS011;56451;44.804;20.476;2022-12-18T16:07:53;74.03;;;30.23;;
68866;SDS011;56451;44.804;20.476;2022-12-18T16:10:19;75.50;;;29.50;;
68866;SDS011;56451;44.804;20.476;2022-12-18T16:12:45;75.55;;;28.77;;
68866;SDS011;56451;44.804;20.476;2022-12-18T16:15:14;80.00;;;32.25;;
68866;SDS011;56451;44.804;20.476;2022-12-18T16:17:44;73.20;;;27.15;;
68866;SDS011;56451;44.804;20.476;2022-12-18T16:20:16;69.43;;;26.70;;
68866;SDS011;56451;44.804;20.476;2022-12-18T16:22:43;77.30;;;30.33;;
68866;SDS011;56451;44.804;20.476;2022-12-18T16:25:21;74.82;;;30.35;;
68866;SDS011;56451;44.804;20.476;2022-12-18T16:27:48;78.30;;;30.63;;
68866;SDS011;56451;44.804;20.476;2022-12-18T16:30:16;79.68;;;30.00;;
68866;SDS011;56451;44.804;20.476;2022-12-18T16:32:46;76.65;;;29.30;;
68866;SDS011;56451;44.804;20.476;2022-12-18T16:35:13;82.50;;;30.20;;
68866;SDS011;56451;44.804;20.476;2022-12-18T16:37:40;75.85;;;30.30;;
68866;SDS011;56451;44.804;20.476;2022-12-18T16:40:08;71.18;;;28.42;;
68866;SDS011;56451;44.804;20.476;2022-12-18T16:42:41;75.22;;;28.70;;
68866;SDS011;56451;44.804;20.476;2022-12-18T16:45:12;72.10;;;28.40;;
68866;SDS011;56451;44.804;20.476;2022-12-18T16:47:43;80.17;;;29.13;;
68866;SDS011;56451;44.804;20.476;2022-12-18T16:50:09;78.10;;;28.23;;
68866;SDS011;56451;44.804;20.476;2022-12-18T16:52:36;74.63;;;30.77;;
68866;SDS011;56451;44.804;20.476;2022-12-18T16:55:02;72.85;;;27.88;;
68866;SDS011;56451;44.804;20.476;2022-12-18T16:57:28;79.13;;;29.75;;